sensor_id;sensor_type;location;lat;lon;timestamp;P1;durP1;ratioP1;P2;durP2;ratioP2
974;SDS011;6115;49.296;10.602;2023-04-03T05:35:21;5.23;;;3.20;;
974;SDS011;6115;49.296;10.602;2023-04-03T05:40:21;4.57;;;3.80;;
974;SDS011;6115;49.296;10.602;2023-04-03T05:45:22;4.17;;;3.77;;
974;SDS011;6115;49.296;10.602;2023-04-03T05:50:22;7.27;;;4.10;;
974;SDS011;6115;49.296;10.602;2023-04-03T05:55:23;4.87;;;4.00;;
974;SDS011;6115;49.296;10.602;2023-04-03T12:47:48;5.27;;;3.43;;
974;SDS011;6115;49.296;10.602;2023-04-03T12:52:51;5.40;;;3.47;;
974;SDS011;6115;49.296;10.602;2023-04-03T12:58:23;8.30;;;3.37;;
974;SDS011;6115;49.296;10.602;2023-04-03T13:03:26;4.10;;;2.23;;
974;SDS011;6115;49.296;10.602;2023-04-03T13:08:27;4.30;;;2.60;;
974;SDS011;6115;49.296;10.602;2023-04-03T13:13:28;3.83;;;2.73;;
974;SDS011;6115;49.296;10.602;2023-04-03T13:18:31;3.17;;;2.40;;
974;SDS011;6115;49.296;10.602;2023-04-03T13:23:34;4.50;;;2.40;;
974;SDS011;6115;49.296;10.602;2023-04-03T13:28:39;3.97;;;2.70;;
974;SDS011;6115;49.296;10.602;2023-04-03T13:33:52;2.30;;;2.10;;
974;SDS011;6115;49.296;10.602;2023-04-03T13:39:57;3.40;;;2.00;;
974;SDS011;6115;49.296;10.602;2023-04-03T13:44:33;4.70;;;2.43;;
974;SDS011;6115;49.296;10.602;2023-04-03T13:49:36;4.83;;;3.17;;
974;SDS011;6115;49.296;10.602;2023-04-03T13:55:03;3.23;;;2.50;;
974;SDS011;6115;49.296;10.602;2023-04-03T14:06:20;5.00;;;2.73;;
974;SDS011;6115;49.296;10.602;2023-04-03T14:11:22;5.03;;;2.53;;
974;SDS011;6115;49.296;10.602;2023-04-03T14:16:28;3.73;;;2.13;;
974;SDS011;6115;49.296;10.602;2023-04-03T14:21:32;4.60;;;2.37;;
974;SDS011;6115;49.296;10.602;2023-04-03T14:26:32;2.60;;;1.93;;
974;SDS011;6115;49.296;10.602;2023-04-03T14:31:33;4.50;;;2.43;;
974;SDS011;6115;49.296;10.602;2023-04-03T14:36:34;2.97;;;2.13;;
974;SDS011;6115;49.296;10.602;2023-04-03T14:41:35;2.40;;;2.10;;
974;SDS011;6115;49.296;10.602;2023-04-03T14:46:36;4.90;;;2.17;;
974;SDS011;6115;49.296;10.602;2023-04-03T14:51:39;2.43;;;2.10;;
974;SDS011;6115;49.296;10.602;2023-04-03T14:56:40;3.57;;;2.00;;
974;SDS011;6115;49.296;10.602;2023-04-03T15:01:41;2.33;;;1.73;;
974;SDS011;6115;49.296;10.602;2023-04-03T15:06:42;4.60;;;2.20;;
974;SDS011;6115;49.296;10.602;2023-04-03T15:11:43;3.43;;;2.83;;
974;SDS011;6115;49.296;10.602;2023-04-03T15:16:43;4.40;;;2.83;;
974;SDS011;6115;49.296;10.602;2023-04-03T15:21:44;2.37;;;1.90;;
974;SDS011;6115;49.296;10.602;2023-04-03T15:26:45;3.37;;;2.30;;
974;SDS011;6115;49.296;10.602;2023-04-03T15:31:46;2.90;;;2.60;;
974;SDS011;6115;49.296;10.602;2023-04-03T15:36:49;2.40;;;2.20;;
974;SDS011;6115;49.296;10.602;2023-04-03T15:41:52;2.70;;;2.40;;
974;SDS011;6115;49.296;10.602;2023-04-03T15:46:53;5.40;;;2.70;;
974;SDS011;6115;49.296;10.602;2023-04-03T15:51:54;3.30;;;2.67;;
974;SDS011;6115;49.296;10.602;2023-04-03T15:56:55;2.90;;;2.50;;
974;SDS011;6115;49.296;10.602;2023-04-03T16:01:55;8.80;;;5.60;;
974;SDS011;6115;49.296;10.602;2023-04-03T16:06:57;5.50;;;2.70;;
974;SDS011;6115;49.296;10.602;2023-04-03T16:11:57;7.00;;;3.80;;
974;SDS011;6115;49.296;10.602;2023-04-03T16:16:58;4.07;;;2.40;;
974;SDS011;6115;49.296;10.602;2023-04-03T16:22:00;5.27;;;2.40;;
974;SDS011;6115;49.296;10.602;2023-04-03T16:27:01;4.30;;;2.60;;
974;SDS011;6115;49.296;10.602;2023-04-03T16:32:01;3.83;;;2.47;;
974;SDS011;6115;49.296;10.602;2023-04-03T16:37:02;4.17;;;2.40;;
974;SDS011;6115;49.296;10.602;2023-04-03T16:42:03;4.67;;;2.30;;
974;SDS011;6115;49.296;10.602;2023-04-03T16:47:03;5.00;;;4.50;;
974;SDS011;6115;49.296;10.602;2023-04-03T16:52:05;3.70;;;2.70;;
974;SDS011;6115;49.296;10.602;2023-04-03T16:57:06;2.70;;;2.50;;
974;SDS011;6115;49.296;10.602;2023-04-03T17:02:06;4.83;;;2.97;;
974;SDS011;6115;49.296;10.602;2023-04-03T17:07:07;3.50;;;2.30;;
974;SDS011;6115;49.296;10.602;2023-04-03T17:12:11;4.07;;;2.73;;
974;SDS011;6115;49.296;10.602;2023-04-03T17:17:18;5.00;;;3.03;;
974;SDS011;6115;49.296;10.602;2023-04-03T17:22:22;6.77;;;4.60;;
974;SDS011;6115;49.296;10.602;2023-04-03T17:27:22;7.23;;;3.80;;
974;SDS011;6115;49.296;10.602;2023-04-03T17:32:23;7.67;;;3.80;;
974;SDS011;6115;49.296;10.602;2023-04-03T17:37:25;4.07;;;2.43;;
974;SDS011;6115;49.296;10.602;2023-04-03T17:42:25;3.87;;;3.10;;
974;SDS011;6115;49.296;10.602;2023-04-03T17:47:26;2.60;;;1.80;;
974;SDS011;6115;49.296;10.602;2023-04-03T17:52:26;2.27;;;2.07;;
974;SDS011;6115;49.296;10.602;2023-04-03T17:57:27;2.00;;;1.73;;
974;SDS011;6115;49.296;10.602;2023-04-03T18:02:30;1.90;;;1.67;;
974;SDS011;6115;49.296;10.602;2023-04-03T18:07:31;2.20;;;2.00;;
974;SDS011;6115;49.296;10.602;2023-04-03T18:12:31;3.63;;;2.20;;
974;SDS011;6115;49.296;10.602;2023-04-03T18:17:32;3.63;;;2.57;;
974;SDS011;6115;49.296;10.602;2023-04-03T18:22:33;5.27;;;2.03;;
974;SDS011;6115;49.296;10.602;2023-04-03T18:27:42;4.33;;;3.90;;
974;SDS011;6115;49.296;10.602;2023-04-03T18:32:43;4.23;;;2.13;;
974;SDS011;6115;49.296;10.602;2023-04-03T18:37:44;2.60;;;1.67;;
974;SDS011;6115;49.296;10.602;2023-04-03T18:42:44;4.10;;;2.00;;
974;SDS011;6115;49.296;10.602;2023-04-03T18:47:45;1.47;;;1.27;;
974;SDS011;6115;49.296;10.602;2023-04-03T18:52:46;3.10;;;1.80;;
974;SDS011;6115;49.296;10.602;2023-04-03T18:57:49;1.93;;;1.73;;
974;SDS011;6115;49.296;10.602;2023-04-03T19:02:50;3.20;;;1.90;;
974;SDS011;6115;49.296;10.602;2023-04-03T19:07:50;2.70;;;1.63;;
974;SDS011;6115;49.296;10.602;2023-04-03T19:12:53;2.00;;;1.60;;
974;SDS011;6115;49.296;10.602;2023-04-03T19:17:53;2.63;;;1.50;;
974;SDS011;6115;49.296;10.602;2023-04-03T19:22:55;1.83;;;1.30;;
974;SDS011;6115;49.296;10.602;2023-04-03T19:27:56;5.63;;;1.33;;
974;SDS011;6115;49.296;10.602;2023-04-03T19:32:56;4.90;;;2.00;;
974;SDS011;6115;49.296;10.602;2023-04-03T19:37:57;1.83;;;1.23;;
974;SDS011;6115;49.296;10.602;2023-04-03T19:42:57;2.77;;;1.30;;
974;SDS011;6115;49.296;10.602;2023-04-03T19:47:58;2.53;;;1.60;;
974;SDS011;6115;49.296;10.602;2023-04-03T19:53:00;9.80;;;2.00;;
974;SDS011;6115;49.296;10.602;2023-04-03T19:58:01;4.60;;;1.30;;
974;SDS011;6115;49.296;10.602;2023-04-03T20:03:02;1.73;;;1.20;;
974;SDS011;6115;49.296;10.602;2023-04-03T20:08:03;2.30;;;1.40;;
974;SDS011;6115;49.296;10.602;2023-04-03T20:13:03;2.57;;;1.77;;
974;SDS011;6115;49.296;10.602;2023-04-03T20:18:08;1.93;;;1.07;;
974;SDS011;6115;49.296;10.602;2023-04-03T20:23:11;2.60;;;1.30;;
974;SDS011;6115;49.296;10.602;2023-04-03T20:28:13;1.80;;;0.90;;
974;SDS011;6115;49.296;10.602;2023-04-03T20:33:14;5.00;;;1.20;;
974;SDS011;6115;49.296;10.602;2023-04-03T20:38:15;2.30;;;1.30;;
974;SDS011;6115;49.296;10.602;2023-04-03T20:43:16;2.10;;;1.30;;
974;SDS011;6115;49.296;10.602;2023-04-03T20:48:18;1.80;;;1.27;;
974;SDS011;6115;49.296;10.602;2023-04-03T20:53:19;1.93;;;1.10;;
974;SDS011;6115;49.296;10.602;2023-04-03T20:58:19;1.60;;;1.10;;
974;SDS011;6115;49.296;10.602;2023-04-03T21:03:21;3.07;;;1.40;;
974;SDS011;6115;49.296;10.602;2023-04-03T21:19:38;2.30;;;1.77;;
974;SDS011;6115;49.296;10.602;2023-04-03T21:24:45;4.07;;;1.57;;
974;SDS011;6115;49.296;10.602;2023-04-03T21:29:46;1.30;;;1.10;;
974;SDS011;6115;49.296;10.602;2023-04-03T21:34:47;2.37;;;1.50;;
974;SDS011;6115;49.296;10.602;2023-04-03T21:39:47;2.33;;;1.30;;
974;SDS011;6115;49.296;10.602;2023-04-03T21:44:48;2.10;;;1.27;;
974;SDS011;6115;49.296;10.602;2023-04-03T21:49:49;1.83;;;1.20;;
974;SDS011;6115;49.296;10.602;2023-04-03T21:54:49;2.40;;;1.50;;
974;SDS011;6115;49.296;10.602;2023-04-03T21:59:50;2.13;;;1.50;;
974;SDS011;6115;49.296;10.602;2023-04-03T22:04:51;2.07;;;1.40;;
974;SDS011;6115;49.296;10.602;2023-04-03T22:09:51;2.73;;;1.80;;
974;SDS011;6115;49.296;10.602;2023-04-03T22:14:52;3.53;;;1.43;;
974;SDS011;6115;49.296;10.602;2023-04-03T22:19:52;2.10;;;1.40;;
974;SDS011;6115;49.296;10.602;2023-04-03T22:24:53;2.67;;;1.57;;
974;SDS011;6115;49.296;10.602;2023-04-03T22:29:54;2.73;;;1.50;;
974;SDS011;6115;49.296;10.602;2023-04-03T22:34:55;3.93;;;1.30;;
974;SDS011;6115;49.296;10.602;2023-04-03T22:39:56;1.77;;;1.30;;
974;SDS011;6115;49.296;10.602;2023-04-03T22:44:57;2.20;;;1.40;;
974;SDS011;6115;49.296;10.602;2023-04-03T22:49:58;8.43;;;1.60;;
974;SDS011;6115;49.296;10.602;2023-04-03T22:54:58;3.30;;;2.03;;
974;SDS011;6115;49.296;10.602;2023-04-03T22:59:59;4.77;;;2.47;;
974;SDS011;6115;49.296;10.602;2023-04-03T23:05:00;1.43;;;1.33;;
974;SDS011;6115;49.296;10.602;2023-04-03T23:10:00;1.90;;;1.53;;
974;SDS011;6115;49.296;10.602;2023-04-03T23:15:01;2.57;;;1.67;;
974;SDS011;6115;49.296;10.602;2023-04-03T23:20:01;2.40;;;1.60;;
974;SDS011;6115;49.296;10.602;2023-04-03T23:25:02;2.23;;;1.60;;
974;SDS011;6115;49.296;10.602;2023-04-03T23:30:03;2.17;;;1.70;;
974;SDS011;6115;49.296;10.602;2023-04-03T23:35:05;2.93;;;1.80;;
974;SDS011;6115;49.296;10.602;2023-04-03T23:40:06;3.60;;;1.80;;
974;SDS011;6115;49.296;10.602;2023-04-03T23:45:07;2.10;;;1.50;;
974;SDS011;6115;49.296;10.602;2023-04-03T23:50:08;2.43;;;1.70;;
974;SDS011;6115;49.296;10.602;2023-04-03T23:55:09;2.10;;;1.40;;
